Time;durP1;ratioP1;P1;durP2;ratioP2;P2;SDS_P1;SDS_P2;PMS_P1;PMS_P2;Temp;Humidity;BMP_temperature;BMP_pressure;BME280_temperature;BME280_humidity;BME280_pressure;Samples;Min_cycle;Max_cycle;Signal;HPM_P1;HPM_P2
2023/07/17 00:01:06;;;;;;;8.83;5.40;;;17.30;99.10;;;18.01;100.00;98250.75;4958809;28;20457;-84
2023/07/17 00:03:35;;;;;;;13.50;5.43;;;17.30;99.20;;;18.04;100.00;98257.47;4960641;28;20461;-85
2023/07/17 00:06:06;;;;;;;9.73;5.60;;;17.30;99.30;;;17.88;100.00;98258.94;4958179;28;20530;-85
2023/07/17 00:08:36;;;;;;;10.80;5.93;;;17.20;99.10;;;17.89;100.00;98257.09;4959795;28;20477;-85
2023/07/17 00:11:06;;;;;;;14.37;6.37;;;17.20;98.90;;;17.87;100.00;98253.88;4959841;28;20460;-85
2023/07/17 00:13:37;;;;;;;8.40;5.20;;;17.10;99.20;;;17.80;100.00;98261.13;4962117;28;20482;-86
2023/07/17 00:16:07;;;;;;;9.90;5.33;;;17.10;99.10;;;17.69;100.00;98264.53;4958949;28;20480;-84
2023/07/17 00:18:37;;;;;;;11.50;5.13;;;17.00;99.30;;;17.63;100.00;98255.69;4957252;28;20457;-85
2023/07/17 00:21:07;;;;;;;11.50;6.03;;;17.00;99.40;;;17.53;100.00;98261.47;4960025;28;20473;-85
2023/07/17 00:23:37;;;;;;;11.03;5.07;;;16.90;99.40;;;17.51;100.00;98257.44;4959879;28;20472;-85
2023/07/17 00:26:07;;;;;;;11.73;5.77;;;16.90;99.50;;;17.40;100.00;98256.38;4958699;28;20929;-85
2023/07/17 00:28:39;;;;;;;9.37;5.20;;;16.90;99.30;;;17.36;100.00;98257.84;4959097;28;20542;-86
2023/07/17 00:31:08;;;;;;;8.77;4.93;;;16.80;99.40;;;17.32;100.00;98263.84;4958969;28;20462;-85
2023/07/17 00:33:39;;;;;;;12.10;5.23;;;16.80;99.40;;;17.32;100.00;98263.84;4960824;28;20584;-85
2023/07/17 00:36:08;;;;;;;9.73;5.10;;;16.70;99.80;;;17.26;100.00;98262.06;4958326;28;20553;-85
2023/07/17 00:38:39;;;;;;;9.23;4.77;;;16.60;99.80;;;17.19;100.00;98256.88;4963011;28;20527;-85
2023/07/17 00:41:10;;;;;;;10.47;5.70;;;16.60;99.90;;;17.12;100.00;98258.78;4958775;28;20576;-85
2023/07/17 00:43:41;;;;;;;10.67;5.03;;;16.50;99.60;;;17.09;100.00;98265.34;4960636;28;20469;-86
2023/07/17 00:46:12;;;;;;;7.20;5.30;;;16.50;99.90;;;17.04;100.00;98264.41;4960731;28;20501;-86
2023/07/17 00:48:42;;;;;;;9.93;5.40;;;16.50;99.70;;;17.02;100.00;98263.81;4959816;28;21168;-85
2023/07/17 00:51:12;;;;;;;22.20;5.83;;;16.40;99.70;;;17.05;100.00;98263.34;4956696;28;20462;-85
2023/07/17 00:53:44;;;;;;;7.90;5.67;;;16.40;99.90;;;16.91;100.00;98267.19;4960658;28;20555;-86
2023/07/17 00:56:14;;;;;;;10.50;5.37;;;16.40;99.90;;;16.81;100.00;98272.19;4958023;28;20891;-85
2023/07/17 00:58:45;;;;;;;10.87;5.40;;;16.20;99.90;;;16.71;100.00;98272.72;4959335;28;20453;-85
2023/07/17 01:01:15;;;;;;;13.00;5.33;;;16.20;99.90;;;16.80;100.00;98275.88;4957726;28;20491;-84
2023/07/17 01:03:47;;;;;;;9.60;5.47;;;16.20;99.90;;;16.77;100.00;98273.66;4959698;28;20951;-85
2023/07/17 01:06:18;;;;;;;12.40;5.10;;;16.10;99.90;;;16.70;100.00;98273.72;4963680;28;20481;-86
2023/07/17 01:08:49;;;;;;;9.47;5.57;;;16.10;99.90;;;16.73;100.00;98281.19;4963195;28;20477;-85
2023/07/17 01:11:20;;;;;;;9.03;5.50;;;16.10;99.90;;;16.75;100.00;98273.88;4963158;28;20461;-86
2023/07/17 01:13:53;;;;;;;12.80;5.90;;;16.10;99.90;;;16.64;100.00;98265.88;4961634;28;21050;-85
2023/07/17 01:16:23;;;;;;;11.80;5.00;;;16.10;99.90;;;16.60;100.00;98273.44;4962132;28;20880;-85
2023/07/17 01:18:53;;;;;;;7.77;4.43;;;16.00;99.90;;;16.57;100.00;98273.88;4960832;28;20515;-86
2023/07/17 01:21:32;;;;;;;9.83;5.13;;;16.00;99.90;;;16.54;100.00;98282.22;4960866;28;20465;-85
2023/07/17 01:24:04;;;;;;;7.93;5.43;;;15.90;99.90;;;16.46;100.00;98280.66;4960784;28;20473;-85
2023/07/17 01:26:34;;;;;;;8.27;5.33;;;15.80;99.90;;;16.36;100.00;98280.34;4964422;28;20483;-85
2023/07/17 01:29:04;;;;;;;8.37;5.00;;;15.80;99.90;;;16.30;100.00;98286.50;4961353;28;20485;-85
2023/07/17 01:31:35;;;;;;;10.83;5.40;;;15.70;99.90;;;16.32;100.00;98286.28;4960900;28;21040;-85
2023/07/17 01:34:05;;;;;;;7.77;5.00;;;15.70;99.90;;;16.41;100.00;98287.63;4968779;28;20499;-86
2023/07/17 01:36:35;;;;;;;8.30;5.50;;;15.60;99.90;;;16.41;100.00;98291.06;4959068;28;20964;-85
2023/07/17 01:39:06;;;;;;;10.10;5.20;;;15.60;99.90;;;16.31;100.00;98288.13;4961143;28;20989;-85
2023/07/17 01:41:36;;;;;;;8.33;5.17;;;15.60;99.90;;;16.19;100.00;98289.84;4959250;28;21183;-86
2023/07/17 01:44:08;;;;;;;9.77;5.80;;;15.50;99.90;;;16.00;100.00;98282.94;4962159;28;20473;-85
2023/07/17 01:46:37;;;;;;;14.33;6.23;;;15.50;99.90;;;16.03;100.00;98291.22;4962680;28;20508;-86
2023/07/17 01:49:08;;;;;;;9.80;5.50;;;15.40;99.90;;;15.99;100.00;98284.75;4961693;28;20468;-86
2023/07/17 01:51:39;;;;;;;9.43;5.60;;;15.40;99.90;;;15.91;100.00;98286.84;4961826;28;20534;-85
2023/07/17 01:54:11;;;;;;;7.13;5.40;;;15.30;99.90;;;15.89;100.00;98283.63;4959747;28;20548;-85
2023/07/17 01:56:40;;;;;;;9.63;5.27;;;15.30;99.90;;;15.91;100.00;98286.84;4959583;28;20476;-85
2023/07/17 01:59:10;;;;;;;9.43;5.53;;;15.30;99.90;;;16.04;100.00;98286.72;4958647;28;20460;-85
2023/07/17 02:01:39;;;;;;;10.33;4.90;;;15.30;99.90;;;15.93;100.00;98285.59;4959498;28;20480;-85
2023/07/17 02:04:10;;;;;;;8.10;5.00;;;15.30;99.90;;;15.87;100.00;98283.81;4961848;28;20469;-85
2023/07/17 02:06:40;;;;;;;10.23;5.43;;;15.20;99.90;;;15.77;100.00;98280.03;4960260;28;21090;-86
2023/07/17 02:09:10;;;;;;;10.10;5.70;;;15.10;99.90;;;15.83;100.00;98287.09;4962678;28;20913;-86
2023/07/17 02:11:40;;;;;;;8.47;5.53;;;15.10;99.90;;;15.83;100.00;98279.19;4963343;28;20465;-85
2023/07/17 02:14:10;;;;;;;14.77;5.93;;;15.10;99.90;;;15.76;100.00;98287.13;4961153;28;20487;-85
2023/07/17 02:16:41;;;;;;;11.00;5.33;;;15.10;99.90;;;15.67;100.00;98283.16;4960808;28;21174;-85
2023/07/17 02:19:11;;;;;;;9.67;4.77;;;15.10;99.90;;;15.58;100.00;98277.31;4961677;28;20560;-86
2023/07/17 02:21:40;;;;;;;10.33;5.60;;;15.00;99.90;;;15.60;100.00;98292.94;4961641;28;20465;-86
2023/07/17 02:24:12;;;;;;;10.07;5.37;;;14.90;99.90;;;15.68;100.00;98287.41;4963174;28;20469;-86
2023/07/17 02:26:42;;;;;;;11.23;5.43;;;14.90;99.90;;;15.74;100.00;98281.28;4961171;28;21053;-85
2023/07/17 02:29:13;;;;;;;8.73;5.47;;;15.00;99.90;;;15.72;100.00;98290.44;4960602;28;20493;-86
2023/07/17 02:31:43;;;;;;;12.27;5.23;;;14.90;99.90;;;15.61;100.00;98291.94;4957499;28;20823;-86
2023/07/17 02:34:13;;;;;;;7.93;4.77;;;14.90;99.90;;;15.55;100.00;98290.94;4960224;28;20590;-85
2023/07/17 02:36:43;;;;;;;8.10;5.10;;;14.90;99.90;;;15.51;100.00;98291.59;4959115;28;20469;-86
2023/07/17 02:39:15;;;;;;;10.10;4.90;;;14.80;99.90;;;15.59;100.00;98289.50;4960703;28;20519;-86
2023/07/17 02:41:45;;;;;;;9.70;6.10;;;14.80;99.90;;;15.62;100.00;98292.75;4961072;28;20468;-85
2023/07/17 02:44:17;;;;;;;8.73;5.47;;;14.80;99.90;;;15.62;100.00;98295.38;4958925;28;20457;-85
2023/07/17 02:46:47;;;;;;;9.57;5.40;;;14.80;99.90;;;15.46;100.00;98294.00;4959228;28;21151;-86
2023/07/17 02:49:18;;;;;;;8.10;5.43;;;14.80;99.90;;;15.38;100.00;98300.31;4959209;28;20527;-86
2023/07/17 02:51:49;;;;;;;9.90;6.00;;;14.70;99.90;;;15.25;100.00;98304.84;4958831;28;20522;-86
2023/07/17 02:54:23;;;;;;;9.60;5.50;;;14.60;99.90;;;15.28;100.00;98312.34;4956355;28;20974;-86
2023/07/17 02:56:53;;;;;;;10.77;5.93;;;14.60;99.90;;;15.22;100.00;98311.38;4961902;28;20480;-90
2023/07/17 02:59:23;;;;;;;9.13;5.40;;;14.60;99.90;;;15.21;100.00;98316.84;4959676;28;20464;-86
2023/07/17 03:01:53;;;;;;;8.97;5.60;;;14.50;99.90;;;15.13;100.00;98325.81;4957186;28;20476;-86
2023/07/17 03:04:23;;;;;;;9.10;6.23;;;14.50;99.90;;;15.13;100.00;98318.69;4957205;28;20550;-86
2023/07/17 03:06:54;;;;;;;9.70;5.23;;;14.50;99.90;;;15.11;100.00;98319.91;4954392;28;20809;-84
2023/07/17 03:09:26;;;;;;;17.03;5.90;;;14.50;99.90;;;15.06;100.00;98330.28;4958390;28;20475;-87
2023/07/17 03:11:58;;;;;;;12.20;5.80;;;14.40;99.90;;;15.00;100.00;98329.28;4955439;28;20585;-86
2023/07/17 03:14:29;;;;;;;8.63;5.30;;;14.40;99.90;;;14.99;100.00;98330.28;4958082;28;20473;-84
2023/07/17 03:16:59;;;;;;;10.40;5.23;;;14.30;99.90;;;15.01;100.00;98338.00;4957585;28;20470;-85
2023/07/17 03:19:29;;;;;;;7.97;5.40;;;14.30;99.90;;;15.03;100.00;98336.75;4965132;28;20476;-86
2023/07/17 03:21:58;;;;;;;11.90;5.40;;;14.30;99.90;;;14.87;100.00;98342.50;4960936;28;20477;-87
2023/07/17 03:24:30;;;;;;;9.50;5.87;;;14.30;99.90;;;14.84;100.00;98347.38;4962069;28;20472;-86
2023/07/17 03:26:59;;;;;;;8.60;5.37;;;14.20;99.90;;;14.89;100.00;98344.94;4961573;28;20554;-86
2023/07/17 03:29:29;;;;;;;7.87;4.73;;;14.20;99.90;;;14.94;100.00;98331.94;4964451;28;21028;-86
2023/07/17 03:31:59;;;;;;;10.00;5.50;;;14.20;99.90;;;14.87;100.00;98331.16;4962082;28;20470;-87
2023/07/17 03:34:30;;;;;;;15.30;5.23;;;14.30;99.90;;;14.86;100.00;98334.78;4963179;28;21077;-87
2023/07/17 03:37:02;;;;;;;11.50;4.97;;;14.20;99.90;;;14.87;100.00;98339.03;4962800;28;20476;-86
2023/07/17 03:39:35;;;;;;;15.00;6.20;;;14.20;99.90;;;14.82;100.00;98338.88;4961813;28;20522;-87
2023/07/17 03:42:10;;;;;;;14.07;5.90;;;14.20;99.90;;;14.89;100.00;98337.03;4961985;28;20955;-87
2023/07/17 03:44:41;;;;;;;9.47;5.20;;;14.10;99.90;;;15.00;100.00;98341.63;4962548;28;20488;-87
2023/07/17 03:47:10;;;;;;;7.63;5.60;;;14.10;99.90;;;14.94;100.00;98337.19;4961482;28;20995;-87
2023/07/17 03:49:40;;;;;;;9.13;5.47;;;14.20;99.90;;;14.95;100.00;98338.81;4964252;28;20894;-89
2023/07/17 03:52:11;;;;;;;8.43;5.40;;;14.20;99.90;;;14.97;100.00;98336.78;4964758;28;20464;-88
2023/07/17 03:54:42;;;;;;;11.83;5.33;;;14.20;99.90;;;14.89;100.00;98334.41;4962980;28;20464;-86
2023/07/17 03:57:12;;;;;;;16.27;6.30;;;14.10;99.90;;;14.83;100.00;98335.19;4960048;28;20485;-87
2023/07/17 03:59:49;;;;;;;8.90;5.30;;;14.10;99.90;;;14.82;100.00;98333.59;4961096;28;20468;-86
2023/07/17 04:02:19;;;;;;;10.33;6.00;;;14.10;99.90;;;14.73;100.00;98333.00;4962926;28;20497;-86
2023/07/17 04:04:50;;;;;;;8.70;5.70;;;14.10;99.90;;;14.66;100.00;98348.00;4965520;28;20491;-86
2023/07/17 04:07:20;;;;;;;6.90;4.13;;;14.10;99.90;;;14.70;100.00;98338.69;4961013;28;20499;-86
2023/07/17 04:09:51;;;;;;;10.60;5.20;;;14.00;99.90;;;14.61;100.00;98343.34;4962638;28;20525;-87
2023/07/17 04:12:21;;;;;;;9.23;5.70;;;14.00;99.90;;;14.65;100.00;98348.22;4961730;28;20867;-88
2023/07/17 04:14:51;;;;;;;10.27;5.20;;;14.00;99.90;;;14.68;100.00;98347.81;4958398;28;20481;-88
2023/07/17 04:17:21;;;;;;;7.67;5.07;;;14.00;99.90;;;14.66;100.00;98355.09;4958450;28;20487;-89
2023/07/17 04:19:51;;;;;;;9.60;5.70;;;13.90;99.90;;;14.73;100.00;98361.97;4956758;28;20798;-86
2023/07/17 04:22:22;;;;;;;25.07;12.60;;;13.90;99.90;;;14.69;100.00;98344.97;4961245;28;20491;-90
2023/07/17 04:24:53;;;;;;;11.40;5.30;;;14.00;99.90;;;14.56;100.00;98352.88;4958619;28;21260;-86
2023/07/17 04:27:23;;;;;;;10.60;5.97;;;13.90;99.90;;;14.50;100.00;98356.34;4959862;28;20500;-85
2023/07/17 04:29:54;;;;;;;9.60;5.97;;;13.90;99.90;;;14.55;100.00;98359.97;4958699;28;20474;-87
2023/07/17 04:32:23;;;;;;;11.30;6.03;;;13.90;99.90;;;14.64;100.00;98362.38;4962492;28;20460;-86
2023/07/17 04:34:54;;;;;;;8.47;6.13;;;13.90;99.90;;;14.69;100.00;98365.19;4958421;28;20458;-87
2023/07/17 04:37:25;;;;;;;11.00;5.73;;;13.90;99.90;;;14.71;100.00;98363.19;4960415;28;20469;-86
2023/07/17 04:39:57;;;;;;;8.97;5.03;;;14.00;99.90;;;14.75;100.00;98367.03;4961084;28;20480;-87
2023/07/17 04:42:28;;;;;;;10.33;6.27;;;14.00;99.90;;;14.77;100.00;98367.63;4959927;28;20480;-86
2023/07/17 04:44:58;;;;;;;10.17;5.93;;;14.00;99.90;;;14.74;100.00;98368.84;4960199;28;20536;-87
2023/07/17 04:47:28;;;;;;;14.73;6.10;;;14.10;99.90;;;14.82;100.00;98360.72;4961322;28;21105;-86
2023/07/17 04:49:58;;;;;;;8.73;5.43;;;14.10;99.90;;;14.84;100.00;98369.25;4961223;28;20519;-86
2023/07/17 04:52:29;;;;;;;8.20;5.87;;;14.10;99.90;;;14.86;100.00;98382.19;4959937;28;20489;-85
2023/07/17 04:55:00;;;;;;;12.70;5.70;;;14.10;99.90;;;14.91;100.00;98385.84;4963003;28;20875;-85
2023/07/17 04:57:30;;;;;;;8.27;5.30;;;14.10;99.90;;;15.02;100.00;98382.56;4961964;28;20471;-86
2023/07/17 05:00:00;;;;;;;17.73;4.83;;;14.20;99.90;;;15.10;100.00;98394.69;4962816;28;20470;-85
2023/07/17 05:02:30;;;;;;;8.37;5.50;;;14.30;99.90;;;15.13;100.00;98394.28;4958490;28;20491;-87
2023/07/17 05:05:01;;;;;;;11.20;6.37;;;14.30;99.90;;;15.11;100.00;98391.84;4960425;28;21785;-87
2023/07/17 05:07:31;;;;;;;9.00;5.30;;;14.40;99.90;;;15.24;100.00;98391.00;4957283;28;20501;-86
2023/07/17 05:10:04;;;;;;;13.67;5.47;;;14.40;99.90;;;15.19;100.00;98393.47;4959036;28;20501;-86
2023/07/17 05:12:34;;;;;;;10.53;5.70;;;14.50;99.90;;;15.24;100.00;98406.81;4963011;28;20478;-86
2023/07/17 05:15:06;;;;;;;10.07;5.63;;;14.50;99.90;;;15.27;100.00;98401.13;4959305;28;20468;-88
2023/07/17 05:17:36;;;;;;;10.50;5.27;;;14.50;99.90;;;15.31;100.00;98402.31;4959829;28;20474;-87
2023/07/17 05:20:09;;;;;;;11.03;6.07;;;14.50;99.90;;;15.36;100.00;98405.16;4958542;28;20986;-87
2023/07/17 05:22:39;;;;;;;12.83;5.77;;;14.50;99.90;;;15.24;100.00;98401.53;4959722;28;20989;-86
2023/07/17 05:25:10;;;;;;;9.70;4.80;;;14.60;99.90;;;15.28;100.00;98399.28;4959867;28;20472;-87
2023/07/17 05:27:40;;;;;;;10.17;4.90;;;14.50;99.90;;;15.29;100.00;98401.72;4957382;28;20504;-86
2023/07/17 05:30:11;;;;;;;7.27;5.13;;;14.50;99.90;;;15.31;100.00;98409.41;4958391;28;20467;-87
2023/07/17 05:32:41;;;;;;;17.33;5.00;;;14.50;99.90;;;15.37;100.00;98396.25;4958083;28;20989;-86
2023/07/17 05:35:11;;;;;;;11.30;5.70;;;14.60;99.90;;;15.35;100.00;98393.00;4959084;28;20465;-86
2023/07/17 05:37:42;;;;;;;10.87;5.30;;;14.60;99.90;;;15.35;100.00;98392.16;4958800;28;20605;-87
2023/07/17 05:40:15;;;;;;;11.20;5.23;;;14.60;99.90;;;15.38;100.00;98391.75;4959242;28;20548;-85
2023/07/17 05:42:45;;;;;;;9.60;4.97;;;14.70;99.90;;;15.45;100.00;98395.16;4959153;28;20476;-85
2023/07/17 05:45:16;;;;;;;12.60;5.17;;;14.70;99.90;;;15.51;100.00;98397.84;4958931;28;20465;-86
2023/07/17 05:47:46;;;;;;;10.00;5.70;;;14.70;99.90;;;15.60;100.00;98396.56;4959599;28;20493;-86
2023/07/17 05:50:15;;;;;;;11.93;5.40;;;14.70;99.90;;;15.66;100.00;98399.38;4962359;28;20469;-87
2023/07/17 05:52:45;;;;;;;14.43;5.67;;;14.80;99.90;;;15.75;100.00;98392.84;4961286;28;20702;-87
2023/07/17 05:55:17;;;;;;;13.53;5.10;;;14.80;99.90;;;15.83;100.00;98395.22;4966937;28;20465;-87
2023/07/17 05:57:48;;;;;;;10.77;6.00;;;14.90;99.90;;;15.87;100.00;98399.06;4960080;28;20483;-85
2023/07/17 06:00:22;;;;;;;11.87;5.70;;;15.00;99.90;;;15.90;100.00;98398.63;4959756;28;20492;-87
2023/07/17 06:02:52;;;;;;;10.10;5.23;;;15.10;99.90;;;15.96;100.00;98395.97;4957164;28;20470;-87
2023/07/17 06:05:24;;;;;;;9.70;6.30;;;15.20;99.90;;;16.05;100.00;98399.97;4961140;28;20472;-86
2023/07/17 06:07:54;;;;;;;11.43;6.07;;;15.20;99.90;;;16.12;100.00;98410.47;4963868;28;20493;-87
2023/07/17 06:10:26;;;;;;;25.27;13.70;;;15.30;99.90;;;16.20;100.00;98402.31;4965029;28;20468;-87
2023/07/17 06:12:57;;;;;;;9.40;4.53;;;15.40;99.90;;;16.28;100.00;98404.66;4961898;28;20473;-87
2023/07/17 06:15:27;;;;;;;9.93;5.80;;;15.40;99.90;;;16.38;100.00;98410.28;4961663;28;20967;-87
2023/07/17 06:17:58;;;;;;;10.60;6.10;;;15.50;99.90;;;16.45;100.00;98405.75;4961271;28;20472;-87
2023/07/17 06:20:28;;;;;;;9.10;5.43;;;15.60;99.90;;;16.54;100.00;98415.03;4961346;28;20495;-87
2023/07/17 06:22:58;;;;;;;8.30;5.73;;;15.60;99.90;;;16.60;100.00;98414.19;4959625;28;20464;-87
2023/07/17 06:25:31;;;;;;;13.23;6.47;;;15.70;99.90;;;16.68;100.00;98420.22;4960575;28;21097;-86
2023/07/17 06:28:01;;;;;;;10.43;5.80;;;15.80;99.90;;;16.73;100.00;98412.47;4957251;28;20959;-85
2023/07/17 06:30:33;;;;;;;12.13;5.90;;;15.90;99.90;;;16.78;100.00;98416.06;4958725;28;20838;-86
2023/07/17 06:33:04;;;;;;;20.90;6.00;;;15.90;99.90;;;16.83;100.00;98418.88;4957702;28;21072;-87
2023/07/17 06:35:34;;;;;;;10.27;5.10;;;16.00;99.90;;;16.88;100.00;98420.84;4960909;28;20477;-86
2023/07/17 06:38:05;;;;;;;16.63;6.17;;;16.00;99.90;;;16.93;100.00;98423.66;4959107;28;20527;-86
2023/07/17 06:40:37;;;;;;;11.13;5.27;;;16.00;99.90;;;16.96;100.00;98423.22;4972964;28;20474;-88
2023/07/17 06:43:07;;;;;;;7.57;4.97;;;16.10;99.90;;;17.02;100.00;98425.00;4966511;28;20550;-86
2023/07/17 06:45:39;;;;;;;11.63;5.50;;;16.10;99.90;;;17.04;100.00;98417.66;4958976;28;20472;-87
2023/07/17 06:48:09;;;;;;;8.73;5.90;;;16.20;99.90;;;17.09;100.00;98423.09;4962883;28;20988;-86
2023/07/17 06:50:40;;;;;;;11.40;6.57;;;16.20;99.90;;;17.13;100.00;98432.19;4962682;28;20489;-90
2023/07/17 06:53:10;;;;;;;12.67;6.90;;;16.30;99.90;;;17.16;100.00;98426.47;4962686;28;20475;-88
2023/07/17 06:55:42;;;;;;;8.60;4.90;;;16.30;99.90;;;17.20;100.00;98418.91;4962780;28;21769;-86
2023/07/17 06:58:13;;;;;;;17.73;6.67;;;16.40;99.90;;;17.25;100.00;98422.50;4954600;28;20472;-86
2023/07/17 07:00:44;;;;;;;10.20;5.20;;;16.40;99.90;;;17.32;100.00;98427.75;4958913;28;20913;-86
2023/07/17 07:03:15;;;;;;;12.33;5.60;;;16.50;99.90;;;17.36;100.00;98423.59;4959172;28;20483;-87
2023/07/17 07:05:55;;;;;;;76.67;38.33;;;16.50;99.90;;;17.41;100.00;98424.56;4961561;28;20983;-87
2023/07/17 07:08:27;;;;;;;12.87;6.43;;;16.60;99.90;;;17.47;100.00;98423.69;4961999;28;20508;-86
2023/07/17 07:11:02;;;;;;;8.50;5.23;;;16.60;99.90;;;17.53;100.00;98430.72;4963132;28;20871;-87
2023/07/17 07:13:31;;;;;;;7.57;4.90;;;16.70;99.90;;;17.57;100.00;98426.63;4959264;28;20470;-86
2023/07/17 07:16:01;;;;;;;10.83;4.53;;;16.70;99.90;;;17.61;100.00;98429.66;4962360;28;20465;-86
2023/07/17 07:18:32;;;;;;;9.60;4.93;;;16.80;99.90;;;17.66;100.00;98429.81;4961353;28;20464;-87
2023/07/17 07:21:03;;;;;;;7.33;4.70;;;16.80;99.90;;;17.72;100.00;98428.09;4960563;28;20475;-87
2023/07/17 07:23:34;;;;;;;7.70;4.30;;;16.90;99.90;;;17.79;100.00;98428.81;4958194;28;20966;-86
2023/07/17 07:26:06;;;;;;;12.93;4.67;;;17.00;99.90;;;17.84;100.00;98431.59;4961859;28;21009;-86
2023/07/17 07:28:36;;;;;;;11.10;4.20;;;17.00;99.90;;;17.89;100.00;98431.72;4960509;28;21166;-85
2023/07/17 07:31:05;;;;;;;10.10;4.77;;;17.00;99.90;;;17.93;100.00;98435.53;4961863;28;20468;-86
2023/07/17 07:33:36;;;;;;;8.30;4.23;;;17.10;99.90;;;17.98;100.00;98425.88;4961935;28;20461;-88
2023/07/17 07:36:06;;;;;;;10.07;4.20;;;17.10;99.90;;;18.03;100.00;98430.53;4958737;28;20494;-87
2023/07/17 07:38:36;;;;;;;10.43;4.90;;;17.20;99.90;;;18.08;100.00;98423.50;4959960;28;20458;-85
2023/07/17 07:41:08;;;;;;;8.87;3.77;;;17.20;99.90;;;18.15;100.00;98438.50;4959033;28;20468;-86
2023/07/17 07:43:38;;;;;;;6.57;4.00;;;17.30;99.90;;;18.23;100.00;98432.88;4959758;28;20468;-85
2023/07/17 07:46:08;;;;;;;11.50;4.50;;;17.40;99.90;;;18.30;100.00;98433.59;4960625;28;20461;-86
2023/07/17 07:48:38;;;;;;;7.03;4.67;;;17.50;99.90;;;18.40;100.00;98437.28;4957427;28;20500;-85
2023/07/17 07:51:08;;;;;;;27.87;3.10;;;17.60;99.90;;;18.50;100.00;98429.63;4963666;28;20839;-86
2023/07/17 07:53:39;;;;;;;6.13;3.50;;;17.70;99.90;;;18.58;100.00;98439.09;4957778;28;20477;-90
2023/07/17 07:56:13;;;;;;;9.47;4.60;;;17.80;99.90;;;18.70;100.00;98433.81;4960756;28;20465;-85
2023/07/17 07:58:45;;;;;;;5.90;2.87;;;17.80;99.90;;;18.79;100.00;98435.88;4956721;28;20461;-84
2023/07/17 08:01:15;;;;;;;11.33;3.43;;;17.90;99.60;;;18.89;100.00;98435.31;4959288;28;20465;-85
2023/07/17 08:03:45;;;;;;;6.13;3.10;;;18.10;99.30;;;19.00;100.00;98426.56;4962301;28;20465;-84
2023/07/17 08:06:16;;;;;;;6.70;3.50;;;18.30;99.10;;;19.12;100.00;98423.91;4962462;28;20465;-85
2023/07/17 08:08:46;;;;;;;6.90;3.67;;;18.40;99.30;;;19.23;100.00;98431.81;4961033;28;20480;-84
2023/07/17 08:11:20;;;;;;;10.07;3.80;;;18.50;99.20;;;19.31;100.00;98436.78;4959203;28;20512;-84
2023/07/17 08:13:50;;;;;;;24.70;14.17;;;18.50;99.20;;;19.38;100.00;98432.16;4964909;28;20785;-84
2023/07/17 08:16:24;;;;;;;10.70;2.43;;;18.60;98.60;;;19.46;98.75;98446.94;4962315;28;20971;-84
2023/07/17 08:18:54;;;;;;;7.20;3.03;;;18.70;98.30;;;19.51;97.57;98437.22;4958549;28;20466;-84
2023/07/17 08:21:24;;;;;;;4.70;2.50;;;18.80;98.10;;;19.56;94.90;98447.97;4962351;28;20472;-84
2023/07/17 08:23:54;;;;;;;7.80;3.93;;;18.90;97.70;;;19.61;92.86;98449.88;4961929;28;20512;-87
2023/07/17 08:26:25;;;;;;;8.20;3.03;;;18.90;97.00;;;19.69;91.07;98440.75;4961044;28;20476;-83
2023/07/17 08:28:56;;;;;;;5.03;2.93;;;19.00;97.00;;;19.76;89.68;98446.75;4960583;28;20528;-83
2023/07/17 08:31:26;;;;;;;6.97;3.10;;;19.20;96.70;;;19.84;88.40;98438.41;4960030;28;20468;-84
2023/07/17 08:33:57;;;;;;;6.03;3.03;;;19.20;96.20;;;19.92;88.62;98438.81;4961481;28;20478;-84
2023/07/17 08:36:30;;;;;;;6.53;2.97;;;19.20;96.70;;;20.01;86.23;98441.91;4959668;28;20469;-84
2023/07/17 08:39:00;;;;;;;7.30;2.40;;;19.30;95.80;;;20.07;84.91;98438.31;4958533;28;21038;-85
2023/07/17 08:41:32;;;;;;;13.20;2.77;;;19.40;95.60;;;20.13;83.39;98442.69;4960342;28;20474;-84
2023/07/17 08:44:04;;;;;;;3.23;2.00;;;19.40;95.20;;;20.17;83.75;98446.47;4961693;28;20464;-84
2023/07/17 08:46:34;;;;;;;9.00;2.70;;;19.50;95.30;;;20.23;84.50;98442.88;4960715;28;21418;-84
2023/07/17 08:49:05;;;;;;;5.83;2.33;;;19.50;95.50;;;20.28;84.61;98442.97;4959001;28;20500;-84
2023/07/17 08:51:35;;;;;;;7.90;3.00;;;19.60;95.50;;;20.32;84.51;98440.63;4958751;28;20556;-83
2023/07/17 08:54:04;;;;;;;7.20;2.77;;;19.60;95.60;;;20.37;82.50;98436.25;4963665;28;20465;-84
2023/07/17 08:56:39;;;;;;;3.80;2.33;;;19.70;95.20;;;20.42;81.94;98428.34;4959724;28;21043;-84
2023/07/17 08:59:11;;;;;;;4.67;2.37;;;19.80;94.80;;;20.50;81.44;98427.94;4963446;28;20472;-84
2023/07/17 09:01:42;;;;;;;9.47;2.20;;;19.80;94.90;;;20.55;79.89;98429.84;4958770;28;21011;-84
2023/07/17 09:04:13;;;;;;;7.03;2.90;;;19.70;94.20;;;20.60;78.71;98432.63;4958705;28;21092;-84
2023/07/17 09:06:43;;;;;;;3.27;1.93;;;19.90;94.30;;;20.66;78.04;98436.16;4958754;28;20499;-84
2023/07/17 09:09:15;;;;;;;4.10;2.30;;;19.90;93.90;;;20.66;77.16;98436.16;4959513;28;21017;-84
2023/07/17 09:11:47;;;;;;;5.87;2.53;;;20.00;94.00;;;20.69;77.17;98444.44;4959432;28;21125;-84
2023/07/17 09:14:21;;;;;;;4.57;2.50;;;20.00;93.90;;;20.69;77.64;98447.09;4960119;28;20456;-84
2023/07/17 09:17:01;;;;;;;7.90;2.97;;;20.00;93.80;;;20.70;77.74;98437.28;4958632;28;20469;-84
2023/07/17 09:19:31;;;;;;;7.23;2.60;;;20.00;93.90;;;20.70;77.62;98446.06;4961349;28;20580;-84
2023/07/17 09:22:03;;;;;;;8.33;2.50;;;20.20;94.00;;;20.70;76.18;98442.59;4959132;28;20473;-84
2023/07/17 09:24:36;;;;;;;9.40;2.40;;;20.10;93.60;;;20.72;75.90;98445.84;4962579;28;20476;-83
2023/07/17 09:27:09;;;;;;;5.00;2.40;;;20.00;93.30;;;20.79;76.38;98438.50;4958975;28;20469;-84
2023/07/17 09:29:42;;;;;;;6.70;2.47;;;20.10;93.90;;;20.84;75.25;98438.56;4961217;28;20481;-84
2023/07/17 09:32:18;;;;;;;3.70;2.33;;;20.20;93.50;;;20.92;76.68;98446.13;4958188;28;20580;-84
2023/07/17 09:34:55;;;;;;;3.67;2.20;;;20.20;93.80;;;20.96;74.86;98441.94;4958497;28;20558;-83
2023/07/17 09:37:31;;;;;;;4.30;2.20;;;20.30;93.50;;;20.96;70.40;98434.75;4959151;28;20515;-83
2023/07/17 09:40:07;;;;;;;5.33;2.50;;;20.20;92.20;;;21.05;70.61;98435.16;4959399;28;20460;-84
2023/07/17 09:42:41;;;;;;;7.23;2.50;;;20.30;92.30;;;21.16;71.18;98438.78;4959864;28;20473;-84
2023/07/17 09:45:14;;;;;;;6.00;2.97;;;20.50;92.60;;;21.23;71.49;98434.91;4958923;28;20457;-84
2023/07/17 09:47:48;;;;;;;9.60;3.30;;;20.50;92.50;;;21.28;70.97;98434.97;4959044;28;21184;-83
2023/07/17 09:50:19;;;;;;;8.03;2.50;;;20.50;92.50;;;21.36;68.19;98441.72;4960102;28;20574;-84
2023/07/17 09:52:50;;;;;;;4.20;2.30;;;20.60;91.70;;;21.43;67.78;98442.34;4961740;28;24062;-84
2023/07/17 09:55:24;;;;;;;5.30;2.20;;;20.70;91.70;;;21.45;66.28;98440.25;4962488;28;20988;-83
2023/07/17 09:58:01;;;;;;;7.33;2.40;;;20.80;91.50;;;21.46;66.21;98444.50;4961573;28;21064;-83
2023/07/17 10:00:33;;;;;;;8.50;2.80;;;20.90;91.30;;;21.44;65.56;98444.78;4958667;28;20967;-84
2023/07/17 10:03:08;;;;;;;6.93;2.77;;;20.80;91.10;;;21.46;65.82;98453.31;4958998;28;20473;-86
2023/07/17 10:05:39;;;;;;;3.40;2.03;;;20.80;91.20;;;21.53;65.48;98456.59;4959294;28;20460;-84
2023/07/17 10:08:10;;;;;;;5.20;2.47;;;20.90;91.00;;;21.56;63.42;98449.97;4959199;28;21008;-83
2023/07/17 10:10:40;;;;;;;8.00;2.70;;;20.90;90.50;;;21.58;64.43;98447.88;4958089;28;20511;-83
2023/07/17 10:13:13;;;;;;;5.87;2.67;;;20.90;90.80;;;21.61;64.91;98452.69;4956245;28;21013;-83
2023/07/17 10:15:42;;;;;;;4.23;2.30;;;20.90;91.10;;;21.65;65.18;98461.00;4959522;28;20985;-83
2023/07/17 10:18:13;;;;;;;11.37;2.33;;;20.90;91.40;;;21.68;64.46;98453.31;4961450;28;20899;-82
2023/07/17 10:20:55;;;;;;;5.30;2.00;;;20.90;90.80;;;21.70;64.15;98453.06;4960833;28;20471;-83
2023/07/17 10:23:25;;;;;;;5.37;1.97;;;20.90;90.60;;;21.76;63.68;98452.09;4957121;28;20469;-83
2023/07/17 10:26:09;;;;;;;5.50;2.80;;;21.00;90.60;;;21.75;63.28;98451.28;4955645;28;20468;-84